createdAt,value
2023-05-11T00:01:54.071Z,5.43
2023-05-11T00:04:21.309Z,5.56
2023-05-11T00:06:48.472Z,5.52
2023-05-11T00:09:15.540Z,5.58
2023-05-11T00:11:42.655Z,5.55
2023-05-11T00:14:09.783Z,5.79
2023-05-11T00:16:36.869Z,5.78
2023-05-11T00:19:04.060Z,5.92
2023-05-11T00:21:32.359Z,5.90
2023-05-11T00:23:59.452Z,6.08
2023-05-11T00:26:26.900Z,6.66
2023-05-11T00:28:54.105Z,6.71
2023-05-11T00:31:21.310Z,6.56
2023-05-11T00:33:48.631Z,6.86
2023-05-11T00:36:15.751Z,7.12
2023-05-11T00:38:42.877Z,6.94
2023-05-11T00:41:10.036Z,6.36
2023-05-11T00:43:37.143Z,6.00
2023-05-11T00:46:05.159Z,5.74
2023-05-11T00:48:32.608Z,5.70
2023-05-11T00:51:00.582Z,5.51
2023-05-11T00:53:27.893Z,5.52
2023-05-11T00:55:55.144Z,5.41
2023-05-11T00:58:22.754Z,5.47
2023-05-11T01:00:50.542Z,5.44
2023-05-11T01:03:18.469Z,5.36
2023-05-11T01:06:04.466Z,5.43
2023-05-11T01:08:41.516Z,5.29
2023-05-11T01:11:14.407Z,5.31
2023-05-11T01:13:53.436Z,5.48
2023-05-11T01:16:24.667Z,5.40
2023-05-11T01:19:25.182Z,5.42
2023-05-11T01:21:53.084Z,5.37
2023-05-11T01:24:50.628Z,5.39
2023-05-11T01:27:35.898Z,5.32
2023-05-11T01:30:24.062Z,5.29
2023-05-11T01:32:53.978Z,5.23
2023-05-11T01:35:23.757Z,5.55
2023-05-11T01:37:54.411Z,5.30
2023-05-11T01:40:34.313Z,5.26
2023-05-11T01:43:07.788Z,5.28
2023-05-11T01:45:41.198Z,5.29
2023-05-11T01:48:14.724Z,5.10
2023-05-11T01:50:42.509Z,5.38
2023-05-11T01:53:12.083Z,5.00
2023-05-11T01:55:41.225Z,4.96
2023-05-11T01:58:11.322Z,4.95
2023-05-11T02:00:39.343Z,5.03
2023-05-11T02:03:08.504Z,5.35
2023-05-11T02:05:36.748Z,5.47
2023-05-11T02:08:05.730Z,5.41
2023-05-11T02:10:34.534Z,5.77
2023-05-11T02:13:05.399Z,5.74
2023-05-11T02:15:36.897Z,6.27
2023-05-11T02:18:07.164Z,6.13
2023-05-11T02:20:35.833Z,6.34
2023-05-11T02:23:03.656Z,6.33
2023-05-11T02:25:32.049Z,6.50
2023-05-11T02:27:59.204Z,6.70
2023-05-11T02:30:29.647Z,6.87
2023-05-11T02:32:59.347Z,6.81
2023-05-11T02:35:30.064Z,6.14
2023-05-11T02:38:01.592Z,5.73
2023-05-11T02:40:34.696Z,5.48
2023-05-11T02:43:14.049Z,5.56
2023-05-11T02:45:50.975Z,5.63
2023-05-11T02:48:24.955Z,6.27
2023-05-11T02:50:56.114Z,6.25
2023-05-11T02:53:28.448Z,6.53
2023-05-11T02:55:56.503Z,6.69
2023-05-11T02:58:24.235Z,6.59
2023-05-11T03:01:00.488Z,6.71
2023-05-11T03:03:28.154Z,6.85
2023-05-11T03:05:55.418Z,6.85
2023-05-11T03:08:22.617Z,7.17
2023-05-11T03:10:52.515Z,6.95
2023-05-11T03:13:22.492Z,7.16
2023-05-11T03:15:51.548Z,7.05
2023-05-11T03:18:19.418Z,7.22
2023-05-11T03:20:47.845Z,7.26
2023-05-11T03:23:17.104Z,7.69
2023-05-11T03:25:45.685Z,7.55
2023-05-11T03:28:14.618Z,7.47
2023-05-11T03:30:49.806Z,7.76
2023-05-11T03:33:17.217Z,7.89
2023-05-11T03:35:46.795Z,8.00
2023-05-11T03:38:21.549Z,8.03
2023-05-11T03:40:52.614Z,7.62
2023-05-11T03:43:22.240Z,8.02
2023-05-11T03:45:54.235Z,8.05
2023-05-11T03:48:23.404Z,8.31
2023-05-11T03:50:52.371Z,7.94
2023-05-11T03:53:20.276Z,7.67
2023-05-11T03:55:47.450Z,7.81
2023-05-11T03:58:15.198Z,8.21
2023-05-11T04:00:43.334Z,8.22
2023-05-11T04:03:11.012Z,8.41
2023-05-11T04:05:39.215Z,8.35
2023-05-11T04:08:11.166Z,8.48
2023-05-11T04:10:38.572Z,8.46
2023-05-11T04:13:05.849Z,8.04
2023-05-11T04:15:33.015Z,8.57
2023-05-11T04:18:00.247Z,8.71
2023-05-11T04:20:27.552Z,8.85
2023-05-11T04:22:54.814Z,8.33
2023-05-11T04:25:22.009Z,8.42
2023-05-11T04:27:49.134Z,8.52
2023-05-11T04:30:16.374Z,8.52
2023-05-11T04:32:43.579Z,8.60
2023-05-11T04:35:10.753Z,9.02
2023-05-11T04:37:39.466Z,9.36
2023-05-11T04:40:09.326Z,9.03
2023-05-11T04:42:40.542Z,9.04
2023-05-11T04:45:12.308Z,9.51
2023-05-11T04:47:40.043Z,9.72
2023-05-11T04:50:08.756Z,9.64
2023-05-11T04:52:36.608Z,9.68
2023-05-11T04:55:04.165Z,9.97
2023-05-11T04:57:31.550Z,10.02
2023-05-11T04:59:58.876Z,9.71
2023-05-11T05:02:26.216Z,9.88
2023-05-11T05:04:53.368Z,9.85
2023-05-11T05:07:21.037Z,9.94
2023-05-11T05:09:48.145Z,9.55
2023-05-11T05:12:15.925Z,10.06
2023-05-11T05:14:43.533Z,9.87
2023-05-11T05:17:10.881Z,9.73
2023-05-11T05:19:39.663Z,10.00
2023-05-11T05:22:06.862Z,10.17
2023-05-11T05:24:34.367Z,10.13
2023-05-11T05:27:02.973Z,10.37
2023-05-11T05:29:30.539Z,10.48
2023-05-11T05:32:00.002Z,10.46
2023-05-11T05:34:28.037Z,10.41
2023-05-11T05:36:55.186Z,10.22
2023-05-11T05:39:22.209Z,10.46
2023-05-11T05:41:49.498Z,10.97
2023-05-11T05:44:16.702Z,11.11
2023-05-11T05:46:44.432Z,10.94
2023-05-11T05:49:12.410Z,11.08
2023-05-11T05:51:39.770Z,10.98
2023-05-11T05:54:07.067Z,11.09
2023-05-11T05:56:35.228Z,11.04
2023-05-11T05:59:02.475Z,10.74
2023-05-11T06:01:30.627Z,11.14
2023-05-11T06:03:58.779Z,11.22
2023-05-11T06:06:26.206Z,11.40
2023-05-11T06:08:53.916Z,11.28
2023-05-11T06:11:21.959Z,11.78
2023-05-11T06:13:49.644Z,11.72
2023-05-11T06:16:16.876Z,11.86
2023-05-11T06:18:44.215Z,11.60
2023-05-11T06:21:11.345Z,11.66
2023-05-11T06:23:38.510Z,11.83
2023-05-11T06:26:05.711Z,11.56
2023-05-11T06:28:33.791Z,11.96
2023-05-11T06:31:04.615Z,11.11
2023-05-11T06:33:35.373Z,11.50
2023-05-11T06:36:06.180Z,11.73
2023-05-11T06:38:33.448Z,12.03
2023-05-11T06:41:00.834Z,12.12
2023-05-11T06:43:27.981Z,12.25
2023-05-11T06:45:55.228Z,11.94
2023-05-11T06:48:26.088Z,11.87
2023-05-11T06:50:53.238Z,12.03
2023-05-11T06:53:20.500Z,12.47
2023-05-11T06:55:47.911Z,11.87
2023-05-11T06:58:15.079Z,12.31
2023-05-11T07:00:42.165Z,12.37
2023-05-11T07:03:09.218Z,12.27
2023-05-11T07:05:37.431Z,12.19
2023-05-11T07:08:05.097Z,12.47
2023-05-11T07:10:32.622Z,12.38
2023-05-11T07:12:59.602Z,12.17
2023-05-11T07:15:26.549Z,11.68
2023-05-11T07:17:53.748Z,12.33
2023-05-11T07:20:21.077Z,12.53
2023-05-11T07:22:48.533Z,12.08
2023-05-11T07:25:15.700Z,12.57
2023-05-11T07:27:42.930Z,12.35
2023-05-11T07:30:10.301Z,12.36
2023-05-11T07:32:37.324Z,12.57
2023-05-11T07:35:04.488Z,12.96
2023-05-11T07:37:31.629Z,13.05
2023-05-11T07:39:58.690Z,13.12
2023-05-11T07:42:25.728Z,13.28
2023-05-11T07:44:52.713Z,13.25
2023-05-11T07:47:21.137Z,13.10
2023-05-11T07:49:48.775Z,12.98
2023-05-11T07:52:16.271Z,12.92
2023-05-11T07:54:43.837Z,12.83
2023-05-11T07:57:14.110Z,13.09
2023-05-11T07:59:41.287Z,13.09
2023-05-11T08:02:11.436Z,13.11
2023-05-11T08:04:40.827Z,12.70
2023-05-11T08:07:09.125Z,12.90
2023-05-11T08:09:36.977Z,12.49
2023-05-11T08:12:04.193Z,12.31
2023-05-11T08:14:31.355Z,12.61
2023-05-11T08:16:58.381Z,13.07
2023-05-11T08:19:25.644Z,13.33
2023-05-11T08:21:52.691Z,13.07
2023-05-11T08:24:19.714Z,13.10
2023-05-11T08:26:47.375Z,12.78
2023-05-11T08:29:14.397Z,12.39
2023-05-11T08:31:41.548Z,12.66
2023-05-11T08:34:18.708Z,12.85
2023-05-11T08:36:47.333Z,12.51
2023-05-11T08:39:14.731Z,13.17
2023-05-11T08:41:43.702Z,13.07
2023-05-11T08:44:11.258Z,12.96
2023-05-11T08:46:42.213Z,13.78
2023-05-11T08:49:09.554Z,13.75
2023-05-11T08:51:36.580Z,14.39
2023-05-11T08:54:03.800Z,14.14
2023-05-11T08:56:32.186Z,14.43
2023-05-11T08:58:59.515Z,14.20
2023-05-11T09:01:29.219Z,14.52
2023-05-11T09:03:57.629Z,14.52
2023-05-11T09:06:26.928Z,14.54
2023-05-11T09:08:55.002Z,14.59
2023-05-11T09:11:23.002Z,15.11
2023-05-11T09:13:50.470Z,14.50
2023-05-11T09:16:35.612Z,14.30
2023-05-11T09:19:04.497Z,14.02
2023-05-11T09:21:32.150Z,14.30
2023-05-11T09:23:59.636Z,14.54
2023-05-11T09:26:29.401Z,14.87
2023-05-11T09:31:45.238Z,15.21
2023-05-11T09:34:13.796Z,15.31
2023-05-11T09:36:45.157Z,15.10
2023-05-11T09:39:16.694Z,14.70
2023-05-11T09:41:44.064Z,13.94
2023-05-11T09:44:17.098Z,14.50
2023-05-11T10:17:37.904Z,12.95
2023-05-11T10:20:06.757Z,13.36
2023-05-11T10:22:33.973Z,13.65
2023-05-11T10:25:03.028Z,13.51
2023-05-11T10:27:32.035Z,13.94
2023-05-11T10:29:59.944Z,14.25
2023-05-11T10:32:28.686Z,14.46
2023-05-11T10:34:57.211Z,14.71
2023-05-11T10:37:24.455Z,14.67
2023-05-11T10:39:52.492Z,14.88
2023-05-11T10:42:25.461Z,15.10
2023-05-11T10:45:21.617Z,15.43
2023-05-11T10:48:31.329Z,15.44
2023-05-11T10:51:35.847Z,15.29
2023-05-11T10:54:34.383Z,15.16
2023-05-11T10:57:11.230Z,15.46
2023-05-11T11:00:10.172Z,15.56
2023-05-11T11:02:38.199Z,15.80
2023-05-11T11:05:09.072Z,15.69
2023-05-11T11:08:04.034Z,14.80
2023-05-11T11:10:34.753Z,15.52
2023-05-11T11:13:03.672Z,15.35
2023-05-11T11:16:09.606Z,15.32
2023-05-11T11:18:36.920Z,15.57
2023-05-11T11:21:04.753Z,15.72
2023-05-11T11:23:43.004Z,15.28
2023-05-11T11:26:12.451Z,14.85
2023-05-11T11:28:54.254Z,14.63
2023-05-11T11:31:30.393Z,15.23
2023-05-11T11:34:01.132Z,15.44
2023-05-11T11:36:55.986Z,15.35
2023-05-11T11:39:25.569Z,15.01
2023-05-11T11:42:07.365Z,15.41
2023-05-11T11:44:35.083Z,15.41
2023-05-11T11:47:19.921Z,14.04
2023-05-11T11:49:48.660Z,14.36
2023-05-11T11:52:31.227Z,14.61
2023-05-11T11:55:00.260Z,14.15
2023-05-11T11:57:33.305Z,14.23
2023-05-11T12:00:10.633Z,14.94
2023-05-11T12:02:45.531Z,14.48
2023-05-11T12:05:23.374Z,14.87
2023-05-11T12:07:52.642Z,14.49
2023-05-11T12:10:21.746Z,14.39
2023-05-11T12:12:50.713Z,14.63
2023-05-11T12:15:34.640Z,14.24
2023-05-11T12:18:03.403Z,14.32
2023-05-11T12:20:30.529Z,14.56
2023-05-11T12:22:57.570Z,14.86
2023-05-11T12:25:24.758Z,14.50
2023-05-11T12:27:58.287Z,13.78
2023-05-11T12:30:27.384Z,14.06
2023-05-11T12:32:57.778Z,14.06
2023-05-11T12:35:27.152Z,13.22
2023-05-11T12:37:55.026Z,13.20
2023-05-11T12:40:22.249Z,13.29
2023-05-11T12:42:54.252Z,13.82
2023-05-11T12:45:23.602Z,12.98
2023-05-11T12:47:55.534Z,13.13
2023-05-11T12:50:23.086Z,13.50
2023-05-11T12:52:50.638Z,14.39
2023-05-11T12:55:28.610Z,13.86
2023-05-11T12:58:08.870Z,14.34
2023-05-11T13:00:36.225Z,14.43
2023-05-11T13:03:04.128Z,13.41
2023-05-11T13:05:31.252Z,13.65
2023-05-11T13:08:03.939Z,13.76
2023-05-11T13:10:31.848Z,13.79
2023-05-11T13:12:59.309Z,14.13
2023-05-11T13:15:28.649Z,14.49
2023-05-11T13:17:58.720Z,14.69
2023-05-11T13:20:29.786Z,14.08
2023-05-11T13:23:06.082Z,13.91
2023-05-11T13:25:35.128Z,13.91
2023-05-11T13:28:02.256Z,14.40
2023-05-11T13:30:29.331Z,14.30
2023-05-11T13:32:56.636Z,14.82
2023-05-11T13:35:23.682Z,14.43
2023-05-11T13:37:50.759Z,14.96
2023-05-11T13:40:17.955Z,15.32
2023-05-11T13:42:44.929Z,15.87
2023-05-11T13:45:12.331Z,14.90
2023-05-11T13:47:39.325Z,14.52
2023-05-11T13:50:07.320Z,14.43
2023-05-11T13:52:34.396Z,14.09
2023-05-11T13:55:01.471Z,14.06
2023-05-11T13:57:28.552Z,13.98
2023-05-11T13:59:55.613Z,13.32
2023-05-11T14:02:22.793Z,13.48
2023-05-11T14:04:49.912Z,13.49
2023-05-11T14:07:17.255Z,13.28
2023-05-11T14:09:44.384Z,13.45
2023-05-11T14:12:11.515Z,13.15
2023-05-11T14:14:38.662Z,13.22
2023-05-11T14:17:06.462Z,13.08
2023-05-11T14:19:33.712Z,12.58
2023-05-11T14:22:01.255Z,12.99
2023-05-11T14:24:28.368Z,13.02
2023-05-11T14:26:55.411Z,12.98
2023-05-11T14:29:22.496Z,12.76
2023-05-11T14:31:50.143Z,12.74
2023-05-11T14:34:17.258Z,12.63
2023-05-11T14:36:44.438Z,12.90
2023-05-11T14:39:11.528Z,12.37
2023-05-11T14:41:38.675Z,12.49
2023-05-11T14:44:05.814Z,12.55
2023-05-11T14:46:32.927Z,12.47
2023-05-11T14:49:00.055Z,12.80
2023-05-11T14:51:27.195Z,12.40
2023-05-11T14:53:54.329Z,12.53
2023-05-11T14:56:23.499Z,12.17
2023-05-11T14:58:50.640Z,12.19
2023-05-11T15:01:17.859Z,12.16
2023-05-11T15:03:45.154Z,12.28
2023-05-11T15:06:21.092Z,12.39
2023-05-11T15:08:49.644Z,12.15
2023-05-11T15:11:17.733Z,11.90
2023-05-11T15:13:47.670Z,12.02
2023-05-11T15:16:15.054Z,12.19
2023-05-11T15:18:43.069Z,12.16
2023-05-11T15:21:10.294Z,11.99
2023-05-11T15:23:37.433Z,12.14
2023-05-11T15:26:04.745Z,12.06
2023-05-11T15:28:31.901Z,12.03
2023-05-11T15:30:58.979Z,11.81
2023-05-11T15:33:26.195Z,11.34
2023-05-11T15:35:53.368Z,11.34
2023-05-11T15:38:21.002Z,11.33
2023-05-11T15:40:48.065Z,11.48
2023-05-11T15:43:15.266Z,11.22
2023-05-11T15:45:42.406Z,11.03
2023-05-11T15:48:09.862Z,11.20
2023-05-11T15:50:37.088Z,11.15
2023-05-11T15:53:04.247Z,11.38
2023-05-11T15:55:31.356Z,11.33
2023-05-11T15:57:58.431Z,11.50
2023-05-11T16:00:25.659Z,11.49
2023-05-11T16:02:53.537Z,11.58
2023-05-11T16:05:20.809Z,11.50
2023-05-11T16:07:47.904Z,10.94
2023-05-11T16:10:15.486Z,10.97
2023-05-11T16:12:42.658Z,10.70
2023-05-11T16:15:10.432Z,10.79
2023-05-11T16:17:37.648Z,10.68
2023-05-11T16:20:05.270Z,11.03
2023-05-11T16:22:32.433Z,10.94
2023-05-11T16:24:59.663Z,10.61
2023-05-11T16:27:26.851Z,10.55
2023-05-11T16:29:53.915Z,10.59
2023-05-11T16:32:21.010Z,10.73
2023-05-11T16:34:48.100Z,10.51
2023-05-11T16:37:15.660Z,10.12
2023-05-11T16:39:42.957Z,10.43
2023-05-11T16:42:10.697Z,9.91
2023-05-11T16:44:37.855Z,9.95
2023-05-11T16:47:05.822Z,10.34
2023-05-11T16:49:32.933Z,10.46
2023-05-11T16:52:00.900Z,10.67
2023-05-11T16:54:28.168Z,10.58
2023-05-11T16:56:55.290Z,10.27
2023-05-11T16:59:22.546Z,10.24
2023-05-11T17:01:49.861Z,10.40
2023-05-11T17:04:17.196Z,9.74
2023-05-11T17:06:44.382Z,9.88
2023-05-11T17:09:11.805Z,9.64
2023-05-11T17:11:38.917Z,9.19
2023-05-11T17:14:06.204Z,9.39
2023-05-11T17:16:33.656Z,9.53
2023-05-11T17:19:00.796Z,9.65
2023-05-11T17:21:28.956Z,9.69
2023-05-11T17:23:56.147Z,9.48
2023-05-11T17:26:27.236Z,9.22
2023-05-11T17:28:56.946Z,9.72
2023-05-11T17:31:24.563Z,9.37
2023-05-11T17:33:51.692Z,9.41
2023-05-11T17:36:18.826Z,9.08
2023-05-11T17:38:45.952Z,9.25
2023-05-11T17:41:14.160Z,9.53
2023-05-11T17:43:41.298Z,9.56
2023-05-11T17:46:08.598Z,9.22
2023-05-11T17:48:35.749Z,9.32
2023-05-11T17:51:02.905Z,9.57
2023-05-11T17:53:30.207Z,9.41
2023-05-11T17:56:00.711Z,9.31
2023-05-11T17:58:27.810Z,9.45
2023-05-11T18:00:54.910Z,9.43
2023-05-11T18:03:22.246Z,9.50
2023-05-11T18:05:50.623Z,9.19
2023-05-11T18:08:17.796Z,9.47
2023-05-11T18:10:44.933Z,9.63
2023-05-11T18:13:12.096Z,9.42
2023-05-11T18:15:39.512Z,9.69
2023-05-11T18:18:06.825Z,9.28
2023-05-11T18:20:34.749Z,9.07
2023-05-11T18:23:02.083Z,9.07
2023-05-11T18:25:32.004Z,8.99
2023-05-11T18:28:02.631Z,9.24
2023-05-11T18:30:33.531Z,9.32
2023-05-11T18:33:00.740Z,9.24
2023-05-11T18:35:28.127Z,9.28
2023-05-11T18:37:55.549Z,9.09
2023-05-11T18:40:23.228Z,8.76
2023-05-11T18:42:53.175Z,8.82
2023-05-11T18:45:20.393Z,8.63
2023-05-11T18:47:47.663Z,8.44
2023-05-11T18:50:14.908Z,8.49
2023-05-11T18:52:42.370Z,8.29
2023-05-11T18:55:10.325Z,8.22
2023-05-11T18:57:39.592Z,8.59
2023-05-11T19:00:10.146Z,8.63
2023-05-11T19:02:37.406Z,8.28
2023-05-11T19:05:04.740Z,8.58
2023-05-11T19:07:32.125Z,7.98
2023-05-11T19:10:00.090Z,7.77
2023-05-11T19:12:27.506Z,7.97
2023-05-11T19:14:57.492Z,7.74
2023-05-11T19:17:24.661Z,7.70
2023-05-11T19:19:52.459Z,7.98
2023-05-11T19:22:21.479Z,7.74
2023-05-11T19:24:48.649Z,7.70
2023-05-11T19:27:16.074Z,7.50
2023-05-11T19:29:43.391Z,7.41
2023-05-11T19:32:10.666Z,7.13
2023-05-11T19:34:37.804Z,7.02
2023-05-11T19:37:05.079Z,6.93
2023-05-11T19:39:32.314Z,6.83
2023-05-11T19:42:00.496Z,6.58
2023-05-11T19:44:28.587Z,6.45
2023-05-11T19:46:55.713Z,6.29
2023-05-11T19:49:22.840Z,6.20
2023-05-11T19:51:50.090Z,6.15
2023-05-11T19:54:17.389Z,6.16
2023-05-11T19:56:44.480Z,6.25
2023-05-11T19:59:11.789Z,6.40
2023-05-11T20:01:38.917Z,6.44
2023-05-11T20:04:06.188Z,6.55
2023-05-11T20:06:33.542Z,6.63
2023-05-11T20:09:00.684Z,6.95
2023-05-11T20:11:28.662Z,7.13
2023-05-11T20:13:55.818Z,7.14
2023-05-11T20:16:23.139Z,7.23
2023-05-11T20:18:50.389Z,7.58
2023-05-11T20:21:17.519Z,7.81
2023-05-11T20:23:44.626Z,7.54
2023-05-11T20:26:11.715Z,7.76
2023-05-11T20:28:39.730Z,7.86
2023-05-11T20:31:07.196Z,7.89
2023-05-11T20:36:04.836Z,7.82
2023-05-11T20:38:32.748Z,8.10
2023-05-11T20:40:59.959Z,7.79
2023-05-11T20:43:27.333Z,7.96
2023-05-11T20:45:55.016Z,7.79
2023-05-11T20:48:32.445Z,7.87
2023-05-11T20:51:06.641Z,7.90
2023-05-11T20:53:33.833Z,8.16
2023-05-11T20:56:02.747Z,8.08
2023-05-11T20:58:31.758Z,7.77
2023-05-11T21:00:59.162Z,7.56
2023-05-11T21:03:27.816Z,7.77
2023-05-11T21:05:56.451Z,7.51
2023-05-11T21:08:23.643Z,7.57
2023-05-11T21:10:50.801Z,6.83
2023-05-11T21:13:17.944Z,6.54
2023-05-11T21:15:45.035Z,6.37
2023-05-11T21:18:12.290Z,6.04
2023-05-11T21:20:39.399Z,5.87
2023-05-11T21:23:06.492Z,5.68
2023-05-11T21:25:33.647Z,5.52
2023-05-11T21:28:05.042Z,5.39
2023-05-11T21:30:32.294Z,5.30
2023-05-11T21:32:59.494Z,5.30
2023-05-11T21:35:26.667Z,5.41
2023-05-11T21:37:54.286Z,5.48
2023-05-11T21:40:21.724Z,5.43
2023-05-11T21:42:49.238Z,5.55
2023-05-11T21:45:16.409Z,5.67
2023-05-11T21:47:43.595Z,5.69
2023-05-11T21:50:11.408Z,5.76
2023-05-11T21:52:39.100Z,5.76
2023-05-11T21:55:06.717Z,5.78
2023-05-11T21:57:33.916Z,5.78
2023-05-11T22:00:01.051Z,5.75
2023-05-11T22:02:28.570Z,5.70
2023-05-11T22:04:55.805Z,5.64
2023-05-11T22:07:23.525Z,5.63
2023-05-11T22:09:50.966Z,5.61
2023-05-11T22:12:18.254Z,5.58
2023-05-11T22:14:45.948Z,5.58
2023-05-11T22:17:13.117Z,5.53
2023-05-11T22:19:40.385Z,5.48
2023-05-11T22:22:07.525Z,5.49
2023-05-11T22:24:34.658Z,5.46
2023-05-11T22:27:02.091Z,5.50
2023-05-11T22:29:29.201Z,5.57
2023-05-11T22:31:56.369Z,5.55
2023-05-11T22:34:23.526Z,5.67
2023-05-11T22:36:50.702Z,5.69
2023-05-11T22:39:17.887Z,5.66
2023-05-11T22:41:45.083Z,5.67
2023-05-11T22:44:12.345Z,5.78
2023-05-11T22:46:39.438Z,5.78
2023-05-11T22:49:06.539Z,5.82
2023-05-11T22:51:33.622Z,5.85
2023-05-11T22:54:00.810Z,5.88
2023-05-11T22:56:28.419Z,5.90
2023-05-11T22:58:57.306Z,5.94
2023-05-11T23:01:24.413Z,5.95
2023-05-11T23:03:51.629Z,6.02
2023-05-11T23:06:18.792Z,6.13
2023-05-11T23:08:45.928Z,6.21
2023-05-11T23:11:13.201Z,6.22
2023-05-11T23:13:41.577Z,6.31
2023-05-11T23:16:10.502Z,6.34
2023-05-11T23:18:37.864Z,6.34
2023-05-11T23:21:05.447Z,6.34
2023-05-11T23:23:32.834Z,6.34
2023-05-11T23:25:59.916Z,6.36
2023-05-11T23:28:27.066Z,6.36
2023-05-11T23:30:54.112Z,6.38
2023-05-11T23:33:21.313Z,6.42
2023-05-11T23:35:48.623Z,6.41
2023-05-11T23:38:15.758Z,6.36
2023-05-11T23:40:43.275Z,6.29
2023-05-11T23:43:10.450Z,6.31
2023-05-11T23:45:37.768Z,6.35
2023-05-11T23:48:05.386Z,6.40
2023-05-11T23:50:32.546Z,6.40
2023-05-11T23:52:59.688Z,6.38
2023-05-11T23:55:26.781Z,6.37
2023-05-11T23:57:54.552Z,6.34
